Time;durP1;ratioP1;P1;durP2;ratioP2;P2;SDS_P1;SDS_P2;PMS_P1;PMS_P2;Temp;Humidity;BMP_temperature;BMP_pressure;BME280_temperature;BME280_humidity;BME280_pressure;Samples;Min_cycle;Max_cycle;Signal;HPM_P1;HPM_P2
2022/03/10 00:00:43;;;;;;;20.30;15.63;;;9.30;43.20;;;;;;5006627;28;20523;-82
2022/03/10 00:03:10;;;;;;;18.70;15.40;;;9.20;42.90;;;;;;5006373;28;20451;-82
2022/03/10 00:05:36;;;;;;;20.67;15.80;;;9.10;42.80;;;;;;5007688;28;20456;-82
2022/03/10 00:08:06;;;;;;;21.63;15.93;;;9.10;42.90;;;;;;5008071;28;20972;-82
2022/03/10 00:10:32;;;;;;;19.07;16.60;;;9.00;43.10;;;;;;5006434;28;20514;-82
2022/03/10 00:12:59;;;;;;;22.60;15.77;;;8.90;43.70;;;;;;5008040;28;20454;-82
2022/03/10 00:15:26;;;;;;;24.20;17.80;;;8.90;43.90;;;;;;5007432;28;20862;-81
2022/03/10 00:17:54;;;;;;;21.10;17.03;;;8.90;44.10;;;;;;5006485;28;20452;-81
2022/03/10 00:20:21;;;;;;;22.63;16.77;;;8.80;43.90;;;;;;5006537;28;20495;-81
2022/03/10 00:22:50;;;;;;;25.20;17.30;;;8.80;43.80;;;;;;5006732;28;20456;-81
2022/03/10 00:25:19;;;;;;;21.60;15.80;;;8.80;43.80;;;;;;5006884;28;20548;-81
2022/03/10 00:27:47;;;;;;;18.43;16.17;;;8.80;43.80;;;;;;5006732;28;20459;-81
2022/03/10 00:30:14;;;;;;;23.90;16.53;;;8.80;44.10;;;;;;5006123;28;20468;-81
2022/03/10 00:32:45;;;;;;;29.37;17.17;;;8.80;44.30;;;;;;5006108;28;20452;-81
2022/03/10 00:35:17;;;;;;;21.27;15.77;;;8.70;44.00;;;;;;5005497;28;20816;-82
2022/03/10 00:37:45;;;;;;;21.33;16.13;;;8.70;44.10;;;;;;5006624;28;20480;-81
2022/03/10 00:40:13;;;;;;;18.80;15.73;;;8.70;44.20;;;;;;5005556;28;20487;-81
2022/03/10 00:42:42;;;;;;;19.77;14.90;;;8.70;44.20;;;;;;5004595;28;20511;-81
2022/03/10 00:45:10;;;;;;;24.40;16.30;;;8.60;44.20;;;;;;5006160;28;20448;-81
2022/03/10 00:47:37;;;;;;;22.33;16.83;;;8.60;44.30;;;;;;5007395;28;20463;-82
2022/03/10 00:50:05;;;;;;;21.90;16.10;;;8.60;44.50;;;;;;5007092;28;20482;-82
2022/03/10 00:52:32;;;;;;;21.23;16.07;;;8.50;44.40;;;;;;5008111;28;20453;-82
2022/03/10 00:54:59;;;;;;;18.13;15.77;;;8.50;44.20;;;;;;5007054;28;20452;-82
2022/03/10 00:57:25;;;;;;;19.97;15.87;;;8.50;44.30;;;;;;5007050;28;20459;-82
2022/03/10 00:59:53;;;;;;;19.20;14.87;;;8.40;44.50;;;;;;5005995;28;20479;-82
2022/03/10 01:02:20;;;;;;;23.40;15.33;;;8.40;44.80;;;;;;5004897;28;20480;-82
2022/03/10 01:04:47;;;;;;;23.13;15.87;;;8.30;44.60;;;;;;5005497;28;20806;-82
2022/03/10 01:07:13;;;;;;;17.77;15.23;;;8.30;44.80;;;;;;5005032;28;20460;-82
2022/03/10 01:09:40;;;;;;;21.97;15.70;;;8.30;45.00;;;;;;5004884;28;21009;-82
2022/03/10 01:12:07;;;;;;;19.90;14.70;;;8.20;45.10;;;;;;5004701;28;20808;-82
2022/03/10 01:14:34;;;;;;;22.17;16.50;;;8.20;45.20;;;;;;5005832;28;20460;-82
2022/03/10 01:17:03;;;;;;;24.40;17.10;;;8.20;45.20;;;;;;5004820;28;20456;-82
2022/03/10 01:19:29;;;;;;;21.07;15.90;;;8.10;45.10;;;;;;5004744;28;20456;-82
2022/03/10 01:21:56;;;;;;;20.60;14.63;;;8.10;45.30;;;;;;5004373;28;20482;-82
2022/03/10 01:24:23;;;;;;;21.40;16.47;;;8.10;45.30;;;;;;5003867;28;20463;-82
2022/03/10 01:26:50;;;;;;;24.30;18.07;;;8.10;45.30;;;;;;5002421;28;20459;-82
2022/03/10 01:29:17;;;;;;;22.40;16.17;;;8.00;45.30;;;;;;5005552;28;20448;-81
2022/03/10 01:31:44;;;;;;;21.47;16.13;;;8.00;45.60;;;;;;5004626;28;20488;-82
2022/03/10 01:34:12;;;;;;;22.90;16.10;;;8.00;46.00;;;;;;5003139;28;20448;-81
2022/03/10 01:36:38;;;;;;;20.40;16.57;;;8.00;46.10;;;;;;5002337;28;20452;-81
2022/03/10 01:39:05;;;;;;;22.90;16.43;;;7.90;46.10;;;;;;5003201;28;20463;-81
2022/03/10 01:41:33;;;;;;;17.93;15.37;;;7.90;46.10;;;;;;5003135;28;20484;-81
2022/03/10 01:44:01;;;;;;;18.73;15.40;;;8.00;46.20;;;;;;5002694;28;20449;-81
2022/03/10 01:46:28;;;;;;;20.67;15.07;;;7.90;46.00;;;;;;5002354;28;21025;-81
2022/03/10 01:48:56;;;;;;;23.70;16.47;;;7.90;46.10;;;;;;5001801;28;20486;-81
2022/03/10 01:51:25;;;;;;;22.27;15.60;;;7.90;46.10;;;;;;5002805;28;20496;-81
2022/03/10 01:53:52;;;;;;;20.93;15.80;;;7.90;46.10;;;;;;5003899;28;20436;-82
2022/03/10 01:56:20;;;;;;;18.57;14.60;;;7.80;45.90;;;;;;5005285;28;20946;-82
2022/03/10 01:58:48;;;;;;;21.97;16.17;;;7.80;45.90;;;;;;5002583;28;20471;-80
2022/03/10 02:01:15;;;;;;;26.83;16.67;;;7.80;46.00;;;;;;5002503;28;20503;-81
2022/03/10 02:03:42;;;;;;;22.87;16.33;;;7.80;46.50;;;;;;5004461;28;20480;-81
2022/03/10 02:06:09;;;;;;;22.80;17.07;;;7.70;45.70;;;;;;5004660;28;20459;-81
2022/03/10 02:11:21;;;;;;;22.93;16.20;;;7.50;45.60;;;;;;5008769;28;20451;-81
2022/03/10 02:13:48;;;;;;;20.00;15.23;;;7.40;46.10;;;;;;5010064;28;20448;-81
2022/03/10 02:19:01;;;;;;;19.50;15.13;;;7.40;47.00;;;;;;5006213;28;20451;-81
2022/03/10 02:21:28;;;;;;;20.60;14.47;;;7.40;47.60;;;;;;5006785;28;20496;-82
2022/03/10 02:23:56;;;;;;;20.10;14.30;;;7.40;47.00;;;;;;5008884;28;20914;-81
2022/03/10 02:26:23;;;;;;;19.13;15.67;;;7.40;47.10;;;;;;5009056;28;20463;-81
2022/03/10 02:28:50;;;;;;;24.33;15.53;;;7.40;47.10;;;;;;5009688;28;20668;-81
2022/03/10 02:31:17;;;;;;;23.97;15.53;;;7.40;47.20;;;;;;5009682;28;20532;-81
2022/03/10 02:33:44;;;;;;;20.40;14.60;;;7.40;47.40;;;;;;5009473;28;20448;-82
2022/03/10 02:36:10;;;;;;;20.13;14.37;;;7.40;47.40;;;;;;5009507;28;20464;-82
2022/03/10 02:38:37;;;;;;;17.63;14.53;;;7.40;47.50;;;;;;5009587;28;20437;-82
2022/03/10 02:41:05;;;;;;;19.87;14.63;;;7.40;47.50;;;;;;5009669;28;20543;-82
2022/03/10 02:43:32;;;;;;;20.60;15.10;;;7.30;47.40;;;;;;5008868;28;20452;-81
2022/03/10 02:45:58;;;;;;;18.93;15.90;;;7.30;47.30;;;;;;5009144;28;20452;-82
2022/03/10 02:48:25;;;;;;;18.90;13.80;;;7.30;47.10;;;;;;5008081;28;20460;-82
2022/03/10 02:50:52;;;;;;;17.63;14.10;;;7.30;47.20;;;;;;5008439;28;20496;-82
2022/03/10 02:53:19;;;;;;;17.03;13.37;;;7.30;47.30;;;;;;5009115;28;20458;-81
2022/03/10 02:55:46;;;;;;;20.83;14.80;;;7.20;47.10;;;;;;5009779;28;20456;-81
2022/03/10 02:58:14;;;;;;;19.00;14.60;;;7.20;47.10;;;;;;5008946;28;20452;-82
2022/03/10 03:00:41;;;;;;;23.00;15.10;;;7.20;47.20;;;;;;5007375;28;20479;-82
2022/03/10 03:03:08;;;;;;;17.93;15.50;;;7.20;47.30;;;;;;5007110;28;20865;-81
2022/03/10 03:05:35;;;;;;;22.50;15.10;;;7.10;47.10;;;;;;5005072;28;20460;-81
2022/03/10 03:08:02;;;;;;;19.47;16.07;;;7.10;47.50;;;;;;5003580;28;20460;-81
2022/03/10 03:10:29;;;;;;;17.00;13.70;;;7.00;47.80;;;;;;5006656;28;20488;-80
2022/03/10 03:12:56;;;;;;;19.67;14.00;;;6.90;48.00;;;;;;5006738;28;20441;-81
2022/03/10 03:15:24;;;;;;;20.67;15.30;;;6.90;48.30;;;;;;5007294;28;20460;-81
2022/03/10 03:17:50;;;;;;;16.60;13.03;;;6.80;48.30;;;;;;5006812;28;20452;-81
2022/03/10 03:20:17;;;;;;;19.23;14.57;;;6.80;48.90;;;;;;5006891;28;20472;-81
2022/03/10 03:22:45;;;;;;;18.90;14.47;;;6.80;48.50;;;;;;5006938;28;20480;-81
2022/03/10 03:25:14;;;;;;;18.00;14.20;;;6.80;48.80;;;;;;5006205;28;20456;-81
2022/03/10 03:27:41;;;;;;;16.53;13.73;;;6.80;49.00;;;;;;5006675;28;20475;-82
2022/03/10 03:30:08;;;;;;;21.90;14.20;;;6.70;48.80;;;;;;5006383;28;20480;-81
2022/03/10 03:32:36;;;;;;;18.57;14.50;;;6.70;49.00;;;;;;5007530;28;20452;-81
2022/03/10 03:35:04;;;;;;;19.37;13.90;;;6.70;49.10;;;;;;5007241;28;20858;-81
2022/03/10 03:37:30;;;;;;;19.03;14.00;;;6.70;48.90;;;;;;5007289;28;20452;-82
2022/03/10 03:39:57;;;;;;;19.87;14.10;;;6.70;48.90;;;;;;5007284;28;20468;-82
2022/03/10 03:42:24;;;;;;;21.23;14.70;;;6.70;49.20;;;;;;5006569;28;20480;-81
2022/03/10 03:44:51;;;;;;;18.43;14.77;;;6.60;49.30;;;;;;5007226;28;20534;-81
2022/03/10 03:47:17;;;;;;;21.60;15.00;;;6.60;49.20;;;;;;5007272;28;20784;-81
2022/03/10 03:49:45;;;;;;;21.17;15.53;;;6.60;49.10;;;;;;5007551;28;20854;-81
2022/03/10 03:52:12;;;;;;;20.17;15.10;;;6.60;48.90;;;;;;5007017;28;20845;-81
2022/03/10 03:54:39;;;;;;;20.17;14.73;;;6.60;48.70;;;;;;5006241;28;20456;-81
2022/03/10 03:57:06;;;;;;;20.90;13.80;;;6.50;48.80;;;;;;5007655;28;20456;-82
2022/03/10 03:59:32;;;;;;;17.53;12.90;;;6.50;49.00;;;;;;5007899;28;20479;-82
2022/03/10 04:01:59;;;;;;;17.73;13.47;;;6.40;49.40;;;;;;5007321;28;20503;-82
2022/03/10 04:04:26;;;;;;;14.63;12.23;;;6.30;49.70;;;;;;5008225;28;20467;-81
2022/03/10 04:06:54;;;;;;;15.83;13.73;;;6.30;49.90;;;;;;5008096;28;20459;-81
2022/03/10 04:09:21;;;;;;;17.23;13.80;;;6.30;50.00;;;;;;5007438;28;20451;-81
2022/03/10 04:11:47;;;;;;;17.13;14.20;;;6.30;50.20;;;;;;5006992;28;20448;-81
2022/03/10 04:14:14;;;;;;;19.10;14.03;;;6.20;50.20;;;;;;5006957;28;20452;-80
2022/03/10 04:16:41;;;;;;;17.73;13.73;;;6.20;50.20;;;;;;5007203;28;20456;-80
2022/03/10 04:19:08;;;;;;;20.80;13.50;;;6.20;50.20;;;;;;5006370;28;20441;-80
2022/03/10 04:21:35;;;;;;;19.20;13.40;;;6.20;50.40;;;;;;5006385;28;20472;-80
2022/03/10 04:24:04;;;;;;;21.23;15.30;;;6.10;50.50;;;;;;5005828;28;20460;-79
2022/03/10 04:26:31;;;;;;;19.57;14.90;;;6.10;50.40;;;;;;5005565;28;20557;-81
2022/03/10 04:28:57;;;;;;;19.40;15.10;;;6.10;50.50;;;;;;5006012;28;20456;-80
2022/03/10 04:31:24;;;;;;;18.30;14.90;;;6.00;50.60;;;;;;5004833;28;20480;-80
2022/03/10 04:33:51;;;;;;;25.70;14.60;;;6.00;50.80;;;;;;5005537;28;20452;-81
2022/03/10 04:36:18;;;;;;;18.90;14.20;;;6.00;51.30;;;;;;5004913;28;20448;-80
2022/03/10 04:38:44;;;;;;;19.20;14.37;;;6.00;50.50;;;;;;5005655;28;20452;-81
2022/03/10 04:41:13;;;;;;;20.60;12.80;;;6.00;50.60;;;;;;5005455;28;21037;-81
2022/03/10 04:43:40;;;;;;;16.43;12.63;;;6.00;50.80;;;;;;5004987;28;20484;-79
2022/03/10 04:46:06;;;;;;;16.90;13.47;;;5.90;50.80;;;;;;5005717;28;20480;-81
2022/03/10 04:48:33;;;;;;;18.67;14.17;;;5.90;51.00;;;;;;5005278;28;20436;-80
2022/03/10 04:51:00;;;;;;;21.37;13.90;;;5.80;51.00;;;;;;5003525;28;20464;-80
2022/03/10 04:53:27;;;;;;;18.80;14.20;;;5.80;51.10;;;;;;5003687;28;20456;-80
2022/03/10 04:55:54;;;;;;;18.70;14.67;;;5.80;51.20;;;;;;5004169;28;20465;-80
2022/03/10 04:58:22;;;;;;;20.83;14.53;;;5.70;51.30;;;;;;5003904;28;20468;-80
2022/03/10 05:00:49;;;;;;;17.30;14.10;;;5.70;51.40;;;;;;5003382;28;20492;-80
2022/03/10 05:03:15;;;;;;;21.40;14.03;;;5.70;51.80;;;;;;5004105;28;20828;-79
2022/03/10 05:05:42;;;;;;;19.57;15.40;;;5.70;52.00;;;;;;5001443;28;20460;-80
2022/03/10 05:08:09;;;;;;;21.40;15.50;;;5.70;52.60;;;;;;5002630;28;20455;-80
2022/03/10 05:10:36;;;;;;;19.77;14.80;;;5.70;51.70;;;;;;5003151;28;20472;-80
2022/03/10 05:13:03;;;;;;;19.83;14.80;;;5.70;51.60;;;;;;5003036;28;20479;-79
2022/03/10 05:15:32;;;;;;;21.17;15.57;;;5.70;51.50;;;;;;5003728;28;20440;-80
2022/03/10 05:17:59;;;;;;;24.50;16.00;;;5.70;51.30;;;;;;5003564;28;20458;-80
2022/03/10 05:20:27;;;;;;;25.50;16.73;;;5.70;51.80;;;;;;5004016;28;20476;-80
2022/03/10 05:22:55;;;;;;;22.30;15.60;;;5.70;51.40;;;;;;5004566;28;20468;-80
2022/03/10 05:25:24;;;;;;;20.63;16.90;;;5.70;51.50;;;;;;5005899;28;20455;-80
2022/03/10 05:27:52;;;;;;;23.63;16.43;;;5.70;51.60;;;;;;5004080;28;20460;-80
2022/03/10 05:30:20;;;;;;;21.00;15.23;;;5.70;51.50;;;;;;5005218;28;20544;-80
2022/03/10 05:32:49;;;;;;;21.67;15.60;;;5.70;51.40;;;;;;5005459;28;20961;-80
2022/03/10 05:35:17;;;;;;;22.57;16.83;;;5.70;51.40;;;;;;4999754;28;20449;-80
2022/03/10 05:37:45;;;;;;;19.70;14.87;;;5.70;51.30;;;;;;5000274;28;20950;-80
2022/03/10 05:40:14;;;;;;;21.47;15.47;;;5.70;51.40;;;;;;5000036;28;20480;-80
2022/03/10 05:42:43;;;;;;;20.27;15.47;;;5.70;51.40;;;;;;5001278;28;20476;-81
2022/03/10 05:45:11;;;;;;;23.27;15.97;;;5.70;51.40;;;;;;5006343;28;20455;-80
2022/03/10 05:47:39;;;;;;;22.77;16.23;;;5.60;51.50;;;;;;5005703;28;20452;-80
2022/03/10 05:50:09;;;;;;;19.30;14.50;;;5.60;51.70;;;;;;5005474;28;20575;-81
2022/03/10 05:52:36;;;;;;;17.47;14.57;;;5.60;51.80;;;;;;5005296;28;20435;-80
2022/03/10 05:55:05;;;;;;;20.60;15.77;;;5.60;51.90;;;;;;5003857;28;20413;-80
2022/03/10 05:57:32;;;;;;;20.63;14.40;;;5.60;52.00;;;;;;5005206;28;20441;-80
2022/03/10 05:59:58;;;;;;;19.03;14.70;;;5.60;52.00;;;;;;5004029;28;21022;-80
2022/03/10 06:02:25;;;;;;;24.57;15.13;;;5.60;52.00;;;;;;5003168;28;20492;-80
2022/03/10 06:04:52;;;;;;;21.47;15.70;;;5.50;52.10;;;;;;5003150;28;20432;-81
2022/03/10 06:07:20;;;;;;;20.87;14.87;;;5.60;52.30;;;;;;5004475;28;20942;-80
2022/03/10 06:09:47;;;;;;;20.73;14.80;;;5.50;52.10;;;;;;5004401;28;20476;-80
2022/03/10 06:12:14;;;;;;;19.53;13.60;;;5.40;52.10;;;;;;5003631;28;20444;-81
2022/03/10 06:14:40;;;;;;;19.00;14.20;;;5.40;52.30;;;;;;5003773;28;20457;-82
2022/03/10 06:17:08;;;;;;;19.60;14.10;;;5.30;52.40;;;;;;5004282;28;20462;-82
2022/03/10 06:19:35;;;;;;;19.30;15.07;;;5.30;52.80;;;;;;5006356;28;20444;-81
2022/03/10 06:22:02;;;;;;;19.83;14.77;;;5.20;52.80;;;;;;5003380;28;20432;-81
2022/03/10 06:24:30;;;;;;;24.60;16.20;;;5.20;53.00;;;;;;5004413;28;20452;-81
2022/03/10 06:26:57;;;;;;;21.77;16.60;;;5.20;53.20;;;;;;5004457;28;20825;-81
2022/03/10 06:29:23;;;;;;;22.63;16.33;;;5.20;53.30;;;;;;5004695;28;20517;-82
2022/03/10 06:31:51;;;;;;;23.27;16.00;;;5.20;53.30;;;;;;5004353;28;20440;-82
2022/03/10 06:34:18;;;;;;;22.40;15.17;;;5.10;53.30;;;;;;5004905;28;20460;-82
2022/03/10 06:36:45;;;;;;;25.90;14.77;;;5.10;53.40;;;;;;5004775;28;20459;-82
2022/03/10 06:39:12;;;;;;;22.27;14.90;;;5.10;53.50;;;;;;5005079;28;20484;-80
2022/03/10 06:41:40;;;;;;;22.87;16.87;;;5.10;53.60;;;;;;5005440;28;20483;-81
2022/03/10 06:44:08;;;;;;;23.00;14.70;;;5.00;53.60;;;;;;5005102;28;20487;-81
2022/03/10 06:46:34;;;;;;;21.47;15.77;;;5.00;53.80;;;;;;5004972;28;20496;-81
2022/03/10 06:49:02;;;;;;;21.53;16.00;;;5.00;53.90;;;;;;5005255;28;20456;-80
2022/03/10 06:51:29;;;;;;;24.83;15.57;;;5.00;54.10;;;;;;5005110;28;21005;-81
2022/03/10 06:53:56;;;;;;;22.30;15.50;;;4.90;54.50;;;;;;5004658;28;20456;-81
2022/03/10 06:56:22;;;;;;;28.97;16.87;;;4.90;54.90;;;;;;5006201;28;20444;-81
2022/03/10 06:58:51;;;;;;;20.67;16.00;;;4.90;55.10;;;;;;5007051;28;20437;-81
2022/03/10 07:01:19;;;;;;;22.17;15.57;;;4.90;55.20;;;;;;5007415;28;20499;-81
2022/03/10 07:03:46;;;;;;;23.37;16.60;;;5.00;55.30;;;;;;5005513;28;20559;-82
2022/03/10 07:06:12;;;;;;;26.13;17.57;;;5.00;55.60;;;;;;5005589;28;20825;-81
2022/03/10 07:08:40;;;;;;;23.43;15.87;;;5.00;55.90;;;;;;5004541;28;20813;-81
2022/03/10 07:11:07;;;;;;;21.00;16.07;;;5.00;56.10;;;;;;5004986;28;20479;-82
2022/03/10 07:13:36;;;;;;;18.40;14.80;;;5.00;56.30;;;;;;5003693;28;20487;-81
2022/03/10 07:16:10;;;;;;;20.60;14.97;;;5.10;56.50;;;;;;5005708;28;20445;-81
2022/03/10 07:18:37;;;;;;;25.63;16.00;;;5.10;56.50;;;;;;5005060;28;20444;-81
2022/03/10 07:21:05;;;;;;;27.90;17.43;;;5.20;56.40;;;;;;5004441;28;20491;-80
2022/03/10 07:23:32;;;;;;;21.67;15.60;;;5.20;56.40;;;;;;5004987;28;20495;-80
2022/03/10 07:25:59;;;;;;;33.60;19.17;;;5.30;56.30;;;;;;5006538;28;20462;-81
2022/03/10 07:28:27;;;;;;;19.87;15.83;;;5.40;56.20;;;;;;5005807;28;20976;-81
2022/03/10 07:30:55;;;;;;;20.27;16.20;;;5.50;56.10;;;;;;5003854;28;20477;-80
2022/03/10 07:33:23;;;;;;;19.53;15.20;;;5.60;55.80;;;;;;5004565;28;20444;-80
2022/03/10 07:35:50;;;;;;;25.73;17.50;;;5.70;55.40;;;;;;5004652;28;20463;-80
2022/03/10 07:38:16;;;;;;;22.27;16.87;;;5.80;55.20;;;;;;5004694;28;20463;-81
2022/03/10 07:40:43;;;;;;;18.43;15.20;;;5.90;54.80;;;;;;5004859;28;20478;-80
2022/03/10 07:43:10;;;;;;;18.67;14.47;;;6.10;54.50;;;;;;5006191;28;20858;-80
2022/03/10 07:45:36;;;;;;;19.77;15.40;;;6.20;54.20;;;;;;5005546;28;20511;-80
2022/03/10 07:48:04;;;;;;;17.17;14.10;;;6.40;53.80;;;;;;5005897;28;20432;-81
2022/03/10 07:50:32;;;;;;;19.50;14.60;;;6.50;53.50;;;;;;5005532;28;20475;-80
2022/03/10 07:52:59;;;;;;;23.60;14.63;;;6.60;53.10;;;;;;5005608;28;20455;-80
2022/03/10 07:55:26;;;;;;;20.13;15.30;;;6.80;52.80;;;;;;5005477;28;21013;-80
2022/03/10 07:57:52;;;;;;;20.80;15.70;;;6.90;52.30;;;;;;5005765;28;20457;-80
2022/03/10 08:00:19;;;;;;;19.30;15.60;;;7.10;51.90;;;;;;5005911;28;20994;-80
2022/03/10 08:02:46;;;;;;;22.10;15.10;;;7.20;51.50;;;;;;5006228;28;20499;-81
2022/03/10 08:05:13;;;;;;;21.60;15.10;;;7.30;51.10;;;;;;5005878;28;20464;-80
2022/03/10 08:07:41;;;;;;;21.70;14.00;;;7.40;50.70;;;;;;5006490;28;20436;-80
2022/03/10 08:10:09;;;;;;;20.13;15.97;;;7.60;50.50;;;;;;5006100;28;20468;-80
2022/03/10 08:12:36;;;;;;;17.87;14.50;;;7.70;50.10;;;;;;5006148;28;20448;-80
2022/03/10 08:15:05;;;;;;;19.53;15.10;;;7.80;49.80;;;;;;5006215;28;20481;-80
2022/03/10 08:17:32;;;;;;;18.70;14.80;;;7.90;49.40;;;;;;5006208;28;20456;-80
2022/03/10 08:19:59;;;;;;;24.23;15.87;;;8.00;49.10;;;;;;5007134;28;20479;-80
2022/03/10 08:22:26;;;;;;;22.80;16.03;;;8.10;48.80;;;;;;5007517;28;20468;-81
2022/03/10 08:24:54;;;;;;;20.43;16.63;;;8.20;48.40;;;;;;5006316;28;20530;-80
2022/03/10 08:27:20;;;;;;;18.70;14.37;;;8.30;48.10;;;;;;5007525;28;20452;-81
2022/03/10 08:29:47;;;;;;;21.10;16.13;;;8.40;48.00;;;;;;5008682;28;20472;-80
2022/03/10 08:32:15;;;;;;;23.17;15.70;;;8.50;47.80;;;;;;5008696;28;20458;-80
2022/03/10 08:34:42;;;;;;;22.00;15.67;;;8.60;47.50;;;;;;5008962;28;20523;-81
2022/03/10 08:37:08;;;;;;;25.13;16.17;;;8.70;47.30;;;;;;5009183;28;20439;-81
2022/03/10 08:39:35;;;;;;;18.60;13.90;;;8.80;46.90;;;;;;5009446;28;20456;-80
2022/03/10 08:42:05;;;;;;;21.07;15.70;;;8.90;46.60;;;;;;5008961;28;20443;-81
2022/03/10 08:44:32;;;;;;;20.30;16.57;;;9.00;46.40;;;;;;5009556;28;20887;-81
2022/03/10 08:46:58;;;;;;;23.30;16.50;;;9.10;46.00;;;;;;5008122;28;20469;-80
2022/03/10 08:49:25;;;;;;;20.20;14.70;;;9.10;45.90;;;;;;5005066;28;20456;-80
2022/03/10 08:51:52;;;;;;;20.90;14.50;;;9.20;46.10;;;;;;5005207;28;20456;-80
2022/03/10 08:54:19;;;;;;;17.27;14.03;;;9.20;46.00;;;;;;5007809;28;20520;-82
2022/03/10 08:56:46;;;;;;;20.83;17.00;;;9.30;45.80;;;;;;5007034;28;20451;-81
2022/03/10 08:59:14;;;;;;;21.37;16.33;;;9.30;45.60;;;;;;5008020;28;20452;-81
2022/03/10 09:01:41;;;;;;;17.07;15.10;;;9.40;45.40;;;;;;5007734;28;20480;-81
2022/03/10 09:04:08;;;;;;;18.13;14.60;;;9.50;45.10;;;;;;5007418;28;20490;-81
2022/03/10 09:06:35;;;;;;;21.33;15.77;;;9.60;45.10;;;;;;5007732;28;20464;-81
2022/03/10 09:09:03;;;;;;;24.03;16.53;;;9.60;44.70;;;;;;5008086;28;20448;-82
2022/03/10 09:11:30;;;;;;;17.93;15.20;;;9.70;44.60;;;;;;5006597;28;20484;-81
2022/03/10 09:13:57;;;;;;;21.53;14.87;;;9.70;44.50;;;;;;5006767;28;20469;-82
2022/03/10 09:16:25;;;;;;;19.60;16.57;;;9.80;44.60;;;;;;5006514;28;20496;-83
2022/03/10 09:18:53;;;;;;;16.60;14.00;;;9.90;44.50;;;;;;5006461;28;20462;-82
2022/03/10 09:21:20;;;;;;;18.73;15.60;;;10.00;43.70;;;;;;5007164;28;20468;-82
2022/03/10 09:23:47;;;;;;;20.73;16.30;;;10.10;43.50;;;;;;5006503;28;20484;-82
2022/03/10 09:26:15;;;;;;;20.33;14.97;;;10.10;43.40;;;;;;5006307;28;20449;-82
2022/03/10 09:28:43;;;;;;;17.77;15.20;;;10.20;43.30;;;;;;5006006;28;20503;-82
2022/03/10 09:31:12;;;;;;;19.90;15.50;;;10.30;43.10;;;;;;5005908;28;20476;-82
2022/03/10 09:33:40;;;;;;;27.13;15.30;;;10.40;43.00;;;;;;5005685;28;20457;-82
2022/03/10 09:36:07;;;;;;;25.07;15.77;;;10.50;42.80;;;;;;5005490;28;20447;-82
2022/03/10 09:38:34;;;;;;;20.97;14.90;;;10.60;42.60;;;;;;5006271;28;20448;-83
2022/03/10 09:41:00;;;;;;;23.47;17.30;;;10.70;42.40;;;;;;5004993;28;20830;-82
2022/03/10 09:43:29;;;;;;;22.80;15.23;;;10.80;42.30;;;;;;5007800;28;20997;-82
2022/03/10 09:45:56;;;;;;;22.93;16.83;;;10.90;41.80;;;;;;5007633;28;20437;-82
2022/03/10 09:48:23;;;;;;;23.30;17.63;;;11.10;41.10;;;;;;5007663;28;20452;-83
2022/03/10 09:50:51;;;;;;;20.47;16.63;;;11.20;40.30;;;;;;5006513;28;20505;-82
2022/03/10 09:53:19;;;;;;;29.07;16.47;;;11.30;40.20;;;;;;5007138;28;20457;-82
2022/03/10 09:55:46;;;;;;;23.00;17.30;;;11.50;40.50;;;;;;5008359;28;20433;-82
2022/03/10 09:58:13;;;;;;;19.70;16.33;;;11.60;39.30;;;;;;5009179;28;20849;-82
2022/03/10 10:00:40;;;;;;;24.50;17.13;;;11.80;39.70;;;;;;5006635;28;20483;-82
2022/03/10 10:03:07;;;;;;;19.70;16.50;;;11.90;39.50;;;;;;5007047;28;20584;-82
2022/03/10 10:05:39;;;;;;;24.07;16.50;;;12.00;38.00;;;;;;5008175;28;20950;-82
2022/03/10 10:08:09;;;;;;;27.83;17.60;;;12.20;38.80;;;;;;5007432;28;20429;-82
2022/03/10 10:10:39;;;;;;;23.50;16.47;;;12.50;38.30;;;;;;5009319;28;20505;-82
2022/03/10 10:13:06;;;;;;;24.30;17.90;;;12.80;37.40;;;;;;5010544;28;20458;-83
2022/03/10 10:15:35;;;;;;;22.60;17.30;;;13.20;36.00;;;;;;5009429;28;20452;-82
2022/03/10 10:18:02;;;;;;;25.20;18.70;;;13.50;35.50;;;;;;5009933;28;20462;-82
2022/03/10 10:20:31;;;;;;;19.90;16.40;;;13.90;36.00;;;;;;5009319;28;20464;-82
2022/03/10 10:23:17;;;;;;;24.70;17.90;;;14.50;36.00;;;;;;5009171;28;20848;-82
2022/03/10 10:25:52;;;;;;;21.10;17.50;;;15.10;34.90;;;;;;5009099;28;20486;-83
2022/03/10 10:28:27;;;;;;;22.20;16.83;;;15.70;33.70;;;;;;5010225;28;20436;-83
2022/03/10 10:30:56;;;;;;;20.30;18.07;;;16.20;31.50;;;;;;5012274;28;20542;-83
2022/03/10 10:33:24;;;;;;;22.20;18.47;;;16.70;31.70;;;;;;5011654;28;20544;-83
2022/03/10 10:35:51;;;;;;;22.77;17.60;;;17.20;31.20;;;;;;5013140;28;20972;-83
2022/03/10 10:38:32;;;;;;;24.50;18.73;;;17.60;30.90;;;;;;5011513;28;20413;-82
2022/03/10 10:41:18;;;;;;;22.37;17.90;;;18.20;29.80;;;;;;5011075;28;20865;-82
2022/03/10 10:43:49;;;;;;;22.07;18.70;;;18.70;28.50;;;;;;5011888;28;20472;-82
2022/03/10 10:46:30;;;;;;;25.90;20.63;;;19.00;28.20;;;;;;5012376;28;20907;-82
2022/03/10 10:48:58;;;;;;;23.20;18.60;;;19.40;28.40;;;;;;5009998;28;20444;-83
2022/03/10 10:51:30;;;;;;;22.20;19.40;;;20.00;27.60;;;;;;5010417;28;20480;-83
2022/03/10 10:53:59;;;;;;;23.73;20.07;;;20.50;26.80;;;;;;5008695;28;20452;-83
2022/03/10 10:56:26;;;;;;;22.70;19.57;;;20.80;26.20;;;;;;5010858;28;20454;-83
2022/03/10 10:58:54;;;;;;;23.27;20.58;;;21.30;26.50;;;;;;5007715;28;20440;-79
2022/03/10 11:01:29;;;;;;;21.40;19.23;;;22.00;26.30;;;;;;5010514;28;20289;-79
2022/03/10 11:03:56;;;;;;;24.00;18.70;;;22.50;25.10;;;;;;5010364;28;20855;-79
2022/03/10 11:06:24;;;;;;;21.27;18.97;;;23.00;25.00;;;;;;5010229;28;20452;-79
2022/03/10 11:08:51;;;;;;;21.20;18.97;;;23.60;24.80;;;;;;5010436;28;20448;-80
2022/03/10 11:11:20;;;;;;;19.23;17.37;;;24.10;24.10;;;;;;5008001;28;20461;-77
2022/03/10 11:13:47;;;;;;;20.67;18.47;;;24.50;23.90;;;;;;4997233;28;20436;-79
2022/03/10 11:16:15;;;;;;;21.00;18.80;;;25.00;23.00;;;;;;4997795;28;20463;-77
2022/03/10 11:18:42;;;;;;;24.13;19.40;;;25.50;22.90;;;;;;4996034;28;20459;-77
2022/03/10 11:21:23;;;;;;;24.10;21.50;;;25.90;22.40;;;;;;4996319;28;20551;-78
2022/03/10 11:24:12;;;;;;;21.77;19.57;;;26.20;20.80;;;;;;4996170;28;20476;-77
2022/03/10 11:26:50;;;;;;;22.73;20.37;;;26.40;21.50;;;;;;4996169;28;20820;-78
2022/03/10 11:29:22;;;;;;;21.20;18.80;;;26.70;21.30;;;;;;4996241;28;20451;-78
2022/03/10 11:31:50;;;;;;;23.77;21.40;;;27.10;21.20;;;;;;4996194;28;20444;-78
2022/03/10 11:34:48;;;;;;;23.93;21.37;;;27.40;19.90;;;;;;4995976;28;20456;-78
2022/03/10 11:37:38;;;;;;;22.80;20.60;;;27.20;19.60;;;;;;4995909;28;20962;-77
2022/03/10 11:40:07;;;;;;;22.23;19.83;;;27.00;20.10;;;;;;4996069;28;20482;-77
2022/03/10 11:42:36;;;;;;;22.83;19.70;;;27.00;21.00;;;;;;4996020;28;20433;-77
2022/03/10 11:45:08;;;;;;;21.20;18.73;;;27.40;20.70;;;;;;4995844;28;20495;-77
2022/03/10 11:47:36;;;;;;;21.17;18.93;;;27.90;20.00;;;;;;4995742;28;20468;-77
2022/03/10 11:50:28;;;;;;;20.83;18.67;;;28.30;19.30;;;;;;4995619;28;20476;-77
2022/03/10 11:52:59;;;;;;;19.23;17.43;;;28.80;18.90;;;;;;4995692;28;20456;-77
2022/03/10 11:55:40;;;;;;;19.63;17.63;;;28.90;18.20;;;;;;5007703;28;20444;-80
2022/03/10 11:58:10;;;;;;;19.80;17.83;;;29.00;18.70;;;;;;5007627;28;20452;-80
2022/03/10 12:00:51;;;;;;;21.40;19.30;;;29.40;18.70;;;;;;5008170;28;20486;-80
2022/03/10 12:03:27;;;;;;;20.20;18.20;;;29.70;17.20;;;;;;5007933;28;20812;-81
2022/03/10 12:05:56;;;;;;;18.97;17.00;;;29.80;17.90;;;;;;5009157;28;20471;-81
2022/03/10 12:08:24;;;;;;;20.10;18.00;;;30.10;18.00;;;;;;5013357;28;20452;-81
2022/03/10 12:10:52;;;;;;;21.63;19.33;;;30.50;17.40;;;;;;5013620;28;20468;-80
2022/03/10 12:13:26;;;;;;;19.33;17.53;;;30.70;16.00;;;;;;5013307;28;20458;-80
2022/03/10 12:15:53;;;;;;;18.70;16.77;;;30.80;16.50;;;;;;5012500;28;20894;-80
2022/03/10 12:18:25;;;;;;;18.77;16.80;;;31.10;17.10;;;;;;5012853;28;20459;-81
2022/03/10 12:20:54;;;;;;;20.00;18.10;;;31.40;16.00;;;;;;5012693;28;20478;-81
2022/03/10 12:23:23;;;;;;;18.23;16.63;;;31.50;16.10;;;;;;5012751;28;20455;-80
2022/03/10 12:25:53;;;;;;;21.73;18.57;;;31.70;16.10;;;;;;5011986;28;20475;-80
2022/03/10 12:28:35;;;;;;;18.37;16.60;;;31.80;14.70;;;;;;5011298;28;20448;-79
2022/03/10 12:31:06;;;;;;;19.07;17.23;;;31.70;15.20;;;;;;5011154;28;20858;-80
2022/03/10 12:33:33;;;;;;;17.40;15.70;;;31.70;15.80;;;;;;5009729;28;20432;-80
2022/03/10 12:36:01;;;;;;;18.63;16.93;;;32.00;15.90;;;;;;5009525;28;20454;-81
2022/03/10 12:38:36;;;;;;;18.77;16.97;;;32.40;15.70;;;;;;5009979;28;20803;-80
2022/03/10 12:41:04;;;;;;;20.03;18.13;;;32.60;14.70;;;;;;5010254;28;20487;-80
2022/03/10 12:43:32;;;;;;;21.67;19.67;;;32.50;14.70;;;;;;5009856;28;20821;-80